Brunswick Golden Isles Airport Brunswick US
ICAO: KBQK
IATA: BQK
Category: Medium
Scheduled Services: Yes

Elevation: 26 ft
TransAlt. 18000 ft.

Airport Communications:
AWOS 3:124.175
CLNC DEL:126.75
JACKSONVILLE CNTR:126.75
MACON RDO:122.2
CTAF/UNICOM:122.8

KBQK Zoom In..

If Map Doesn't Load, Click Here

Runways:

(A) RW 07 length 8001 ft width 150 ft
ILS 108.50 / hdg 69

(B) RW 25 length 8001 ft width 150 ft
---- / hdg 249

Location; KBQK
Day. 21 / Time. 13.55 Zulu
* Altimeter: 30.16
* Temperature: 28° c. 82.4°f.
* Wind from: 010° Speed 05 kn.
Dewpoint: 23° c.
Visibility: 10 Statute Miles.
Clouds: Clear (automated report).

KBQK 211355Z AUTO 01005KT 10SM CLR 28/23 A3016 RMK AO2


Wind From 010°
Speed 05 kn.

 
 
jpsmedia.com for Web Design worldairports.se 2018   terms of use